sensor_id;sensor_type;location;lat;lon;timestamp;P1;durP1;ratioP1;P2;durP2;ratioP2
5245;SDS011;54412;51.206;6.888;2023-07-20T00:01:23;2.97;;;1.87;;
5245;SDS011;54412;51.206;6.888;2023-07-20T00:03:49;3.53;;;2.00;;
5245;SDS011;54412;51.206;6.888;2023-07-20T00:06:20;3.00;;;2.00;;
5245;SDS011;54412;51.206;6.888;2023-07-20T00:08:47;5.60;;;2.10;;
5245;SDS011;54412;51.206;6.888;2023-07-20T00:11:13;4.30;;;2.53;;
5245;SDS011;54412;51.206;6.888;2023-07-20T00:13:39;2.70;;;2.30;;
5245;SDS011;54412;51.206;6.888;2023-07-20T00:16:05;4.43;;;2.63;;
5245;SDS011;54412;51.206;6.888;2023-07-20T00:18:31;2.63;;;2.10;;
5245;SDS011;54412;51.206;6.888;2023-07-20T00:20:56;2.83;;;1.90;;
5245;SDS011;54412;51.206;6.888;2023-07-20T00:23:22;4.80;;;1.90;;
5245;SDS011;54412;51.206;6.888;2023-07-20T00:25:48;7.60;;;2.40;;
5245;SDS011;54412;51.206;6.888;2023-07-20T00:28:14;2.97;;;2.20;;
5245;SDS011;54412;51.206;6.888;2023-07-20T00:30:39;3.47;;;2.23;;
5245;SDS011;54412;51.206;6.888;2023-07-20T00:33:06;4.23;;;2.70;;
5245;SDS011;54412;51.206;6.888;2023-07-20T00:35:35;2.57;;;2.37;;
5245;SDS011;54412;51.206;6.888;2023-07-20T00:38:02;3.33;;;2.20;;
5245;SDS011;54412;51.206;6.888;2023-07-20T00:40:29;7.33;;;2.40;;
5245;SDS011;54412;51.206;6.888;2023-07-20T00:43:04;6.50;;;2.93;;
5245;SDS011;54412;51.206;6.888;2023-07-20T00:45:30;3.00;;;2.57;;
5245;SDS011;54412;51.206;6.888;2023-07-20T00:47:58;9.40;;;2.57;;
5245;SDS011;54412;51.206;6.888;2023-07-20T00:50:26;5.57;;;3.30;;
5245;SDS011;54412;51.206;6.888;2023-07-20T00:52:54;5.87;;;3.00;;
5245;SDS011;54412;51.206;6.888;2023-07-20T00:55:21;5.20;;;2.57;;
5245;SDS011;54412;51.206;6.888;2023-07-20T00:57:48;3.43;;;2.43;;
5245;SDS011;54412;51.206;6.888;2023-07-20T01:00:15;4.53;;;2.53;;
5245;SDS011;54412;51.206;6.888;2023-07-20T01:02:41;5.10;;;3.20;;
5245;SDS011;54412;51.206;6.888;2023-07-20T01:05:07;2.90;;;2.70;;
5245;SDS011;54412;51.206;6.888;2023-07-20T01:07:35;3.90;;;2.57;;
5245;SDS011;54412;51.206;6.888;2023-07-20T01:12:51;4.57;;;2.50;;
5245;SDS011;54412;51.206;6.888;2023-07-20T01:15:18;3.43;;;3.07;;
5245;SDS011;54412;51.206;6.888;2023-07-20T01:17:45;6.60;;;2.90;;
5245;SDS011;54412;51.206;6.888;2023-07-20T01:20:12;3.60;;;2.90;;
5245;SDS011;54412;51.206;6.888;2023-07-20T01:25:52;3.73;;;2.67;;
5245;SDS011;54412;51.206;6.888;2023-07-20T01:29:08;3.40;;;2.80;;
5245;SDS011;54412;51.206;6.888;2023-07-20T01:32:04;4.50;;;2.90;;
5245;SDS011;54412;51.206;6.888;2023-07-20T01:34:34;2.90;;;2.57;;
5245;SDS011;54412;51.206;6.888;2023-07-20T01:37:02;4.33;;;2.90;;
5245;SDS011;54412;51.206;6.888;2023-07-20T01:39:28;3.27;;;2.97;;
5245;SDS011;54412;51.206;6.888;2023-07-20T01:41:56;5.87;;;3.10;;
5245;SDS011;54412;51.206;6.888;2023-07-20T01:44:23;4.83;;;2.97;;
5245;SDS011;54412;51.206;6.888;2023-07-20T01:46:48;3.80;;;2.70;;
5245;SDS011;54412;51.206;6.888;2023-07-20T01:49:14;4.93;;;3.37;;
5245;SDS011;54412;51.206;6.888;2023-07-20T01:51:40;5.03;;;3.20;;
5245;SDS011;54412;51.206;6.888;2023-07-20T01:54:06;5.03;;;2.70;;
5245;SDS011;54412;51.206;6.888;2023-07-20T01:56:31;3.50;;;3.20;;
5245;SDS011;54412;51.206;6.888;2023-07-20T01:58:57;4.80;;;3.00;;
5245;SDS011;54412;51.206;6.888;2023-07-20T02:01:23;8.87;;;3.27;;
5245;SDS011;54412;51.206;6.888;2023-07-20T02:03:48;3.50;;;3.20;;
5245;SDS011;54412;51.206;6.888;2023-07-20T02:06:14;7.00;;;2.87;;
5245;SDS011;54412;51.206;6.888;2023-07-20T02:08:40;6.63;;;3.33;;
5245;SDS011;54412;51.206;6.888;2023-07-20T02:11:05;5.00;;;2.63;;
5245;SDS011;54412;51.206;6.888;2023-07-20T02:13:31;5.63;;;3.00;;
5245;SDS011;54412;51.206;6.888;2023-07-20T02:15:57;5.17;;;3.33;;
5245;SDS011;54412;51.206;6.888;2023-07-20T02:18:22;8.90;;;3.60;;
5245;SDS011;54412;51.206;6.888;2023-07-20T02:20:48;3.00;;;2.70;;
5245;SDS011;54412;51.206;6.888;2023-07-20T02:23:14;3.63;;;2.93;;
5245;SDS011;54412;51.206;6.888;2023-07-20T02:25:40;4.77;;;3.10;;
5245;SDS011;54412;51.206;6.888;2023-07-20T02:28:07;6.30;;;3.30;;
5245;SDS011;54412;51.206;6.888;2023-07-20T02:30:37;7.73;;;3.10;;
5245;SDS011;54412;51.206;6.888;2023-07-20T02:33:04;3.63;;;3.20;;
5245;SDS011;54412;51.206;6.888;2023-07-20T02:35:31;2.83;;;2.63;;
5245;SDS011;54412;51.206;6.888;2023-07-20T02:37:57;4.93;;;2.60;;
5245;SDS011;54412;51.206;6.888;2023-07-20T02:40:23;6.23;;;2.50;;
5245;SDS011;54412;51.206;6.888;2023-07-20T02:42:49;4.53;;;3.47;;
5245;SDS011;54412;51.206;6.888;2023-07-20T02:45:14;3.23;;;2.93;;
5245;SDS011;54412;51.206;6.888;2023-07-20T02:47:41;3.60;;;3.20;;
5245;SDS011;54412;51.206;6.888;2023-07-20T02:50:07;2.93;;;2.73;;
5245;SDS011;54412;51.206;6.888;2023-07-20T02:52:33;2.90;;;2.43;;
5245;SDS011;54412;51.206;6.888;2023-07-20T02:54:59;2.80;;;2.60;;
5245;SDS011;54412;51.206;6.888;2023-07-20T02:57:25;3.00;;;2.80;;
5245;SDS011;54412;51.206;6.888;2023-07-20T02:59:52;3.07;;;2.47;;
5245;SDS011;54412;51.206;6.888;2023-07-20T03:02:17;4.73;;;2.77;;
5245;SDS011;54412;51.206;6.888;2023-07-20T03:04:43;5.00;;;3.20;;
5245;SDS011;54412;51.206;6.888;2023-07-20T03:07:09;4.30;;;2.80;;
5245;SDS011;54412;51.206;6.888;2023-07-20T03:09:35;3.70;;;2.73;;
5245;SDS011;54412;51.206;6.888;2023-07-20T03:12:00;4.43;;;3.00;;
5245;SDS011;54412;51.206;6.888;2023-07-20T03:14:27;6.43;;;3.17;;
5245;SDS011;54412;51.206;6.888;2023-07-20T03:16:52;4.90;;;2.80;;
5245;SDS011;54412;51.206;6.888;2023-07-20T03:19:18;6.90;;;3.03;;
5245;SDS011;54412;51.206;6.888;2023-07-20T03:21:44;5.37;;;2.90;;
5245;SDS011;54412;51.206;6.888;2023-07-20T03:24:09;7.60;;;3.67;;
5245;SDS011;54412;51.206;6.888;2023-07-20T03:26:35;3.87;;;2.53;;
5245;SDS011;54412;51.206;6.888;2023-07-20T03:29:02;5.60;;;3.33;;
5245;SDS011;54412;51.206;6.888;2023-07-20T03:31:28;3.93;;;3.20;;
5245;SDS011;54412;51.206;6.888;2023-07-20T03:33:54;4.33;;;3.10;;
5245;SDS011;54412;51.206;6.888;2023-07-20T03:36:20;4.10;;;3.00;;
5245;SDS011;54412;51.206;6.888;2023-07-20T03:38:46;6.10;;;4.00;;
5245;SDS011;54412;51.206;6.888;2023-07-20T03:41:12;4.90;;;3.33;;
5245;SDS011;54412;51.206;6.888;2023-07-20T03:43:37;6.17;;;3.50;;
5245;SDS011;54412;51.206;6.888;2023-07-20T03:46:03;6.13;;;3.60;;
5245;SDS011;54412;51.206;6.888;2023-07-20T03:48:32;3.97;;;3.60;;
5245;SDS011;54412;51.206;6.888;2023-07-20T03:50:59;5.83;;;3.93;;
5245;SDS011;54412;51.206;6.888;2023-07-20T03:53:25;5.43;;;3.63;;
5245;SDS011;54412;51.206;6.888;2023-07-20T03:55:54;3.90;;;3.40;;
5245;SDS011;54412;51.206;6.888;2023-07-20T03:58:21;6.13;;;3.80;;
5245;SDS011;54412;51.206;6.888;2023-07-20T04:00:47;7.60;;;4.93;;
5245;SDS011;54412;51.206;6.888;2023-07-20T04:03:18;6.03;;;3.93;;
5245;SDS011;54412;51.206;6.888;2023-07-20T04:05:44;7.03;;;4.43;;
5245;SDS011;54412;51.206;6.888;2023-07-20T04:08:11;7.83;;;5.47;;
5245;SDS011;54412;51.206;6.888;2023-07-20T04:10:37;5.93;;;3.90;;
5245;SDS011;54412;51.206;6.888;2023-07-20T04:13:03;9.90;;;4.70;;
5245;SDS011;54412;51.206;6.888;2023-07-20T04:15:29;4.70;;;4.03;;
5245;SDS011;54412;51.206;6.888;2023-07-20T04:17:56;5.40;;;4.50;;
5245;SDS011;54412;51.206;6.888;2023-07-20T04:20:22;7.00;;;4.03;;
5245;SDS011;54412;51.206;6.888;2023-07-20T04:22:48;4.30;;;3.67;;
5245;SDS011;54412;51.206;6.888;2023-07-20T04:25:15;6.40;;;4.10;;
5245;SDS011;54412;51.206;6.888;2023-07-20T04:27:42;7.63;;;4.93;;
5245;SDS011;54412;51.206;6.888;2023-07-20T04:30:08;5.63;;;4.27;;
5245;SDS011;54412;51.206;6.888;2023-07-20T04:32:36;4.70;;;4.20;;
5245;SDS011;54412;51.206;6.888;2023-07-20T04:35:05;8.63;;;4.77;;
5245;SDS011;54412;51.206;6.888;2023-07-20T04:37:32;12.77;;;5.00;;
5245;SDS011;54412;51.206;6.888;2023-07-20T04:39:58;7.03;;;5.20;;
5245;SDS011;54412;51.206;6.888;2023-07-20T04:42:24;11.10;;;5.20;;
5245;SDS011;54412;51.206;6.888;2023-07-20T04:44:50;8.03;;;5.10;;
5245;SDS011;54412;51.206;6.888;2023-07-20T04:47:15;9.13;;;5.30;;
5245;SDS011;54412;51.206;6.888;2023-07-20T04:49:41;13.33;;;5.87;;
5245;SDS011;54412;51.206;6.888;2023-07-20T04:52:07;11.10;;;5.77;;
5245;SDS011;54412;51.206;6.888;2023-07-20T04:54:33;8.10;;;5.20;;
5245;SDS011;54412;51.206;6.888;2023-07-20T04:56:58;11.37;;;5.93;;
5245;SDS011;54412;51.206;6.888;2023-07-20T04:59:24;8.47;;;6.70;;
5245;SDS011;54412;51.206;6.888;2023-07-20T05:01:50;12.23;;;7.87;;
5245;SDS011;54412;51.206;6.888;2023-07-20T05:04:15;9.97;;;6.37;;
5245;SDS011;54412;51.206;6.888;2023-07-20T05:06:41;7.30;;;5.77;;
5245;SDS011;54412;51.206;6.888;2023-07-20T05:09:07;7.70;;;6.23;;
5245;SDS011;54412;51.206;6.888;2023-07-20T05:11:33;9.07;;;6.57;;
5245;SDS011;54412;51.206;6.888;2023-07-20T05:13:59;9.97;;;7.13;;
5245;SDS011;54412;51.206;6.888;2023-07-20T05:16:25;10.10;;;6.97;;
5245;SDS011;54412;51.206;6.888;2023-07-20T05:18:51;13.80;;;6.70;;
5245;SDS011;54412;51.206;6.888;2023-07-20T05:21:16;11.07;;;7.50;;
5245;SDS011;54412;51.206;6.888;2023-07-20T05:23:42;9.77;;;7.17;;
5245;SDS011;54412;51.206;6.888;2023-07-20T05:26:08;9.70;;;6.40;;
5245;SDS011;54412;51.206;6.888;2023-07-20T05:28:34;12.53;;;7.57;;
5245;SDS011;54412;51.206;6.888;2023-07-20T05:31:02;9.90;;;7.90;;
5245;SDS011;54412;51.206;6.888;2023-07-20T05:33:28;13.23;;;8.23;;
5245;SDS011;54412;51.206;6.888;2023-07-20T05:35:54;17.20;;;8.97;;
5245;SDS011;54412;51.206;6.888;2023-07-20T05:38:19;10.30;;;7.80;;
5245;SDS011;54412;51.206;6.888;2023-07-20T05:40:45;13.53;;;9.40;;
5245;SDS011;54412;51.206;6.888;2023-07-20T05:43:12;11.13;;;8.87;;
5245;SDS011;54412;51.206;6.888;2023-07-20T05:45:41;10.90;;;8.73;;
5245;SDS011;54412;51.206;6.888;2023-07-20T05:48:08;16.97;;;8.40;;
5245;SDS011;54412;51.206;6.888;2023-07-20T05:50:41;11.27;;;8.70;;
5245;SDS011;54412;51.206;6.888;2023-07-20T05:53:10;9.53;;;7.80;;
5245;SDS011;54412;51.206;6.888;2023-07-20T05:55:36;9.40;;;7.80;;
5245;SDS011;54412;51.206;6.888;2023-07-20T05:58:02;9.20;;;7.47;;
5245;SDS011;54412;51.206;6.888;2023-07-20T06:00:29;12.80;;;9.63;;
5245;SDS011;54412;51.206;6.888;2023-07-20T06:02:54;10.30;;;7.93;;
5245;SDS011;54412;51.206;6.888;2023-07-20T06:05:23;10.67;;;9.37;;
5245;SDS011;54412;51.206;6.888;2023-07-20T06:07:50;14.87;;;10.80;;
5245;SDS011;54412;51.206;6.888;2023-07-20T06:10:15;14.97;;;10.73;;
5245;SDS011;54412;51.206;6.888;2023-07-20T06:12:41;13.17;;;8.70;;
5245;SDS011;54412;51.206;6.888;2023-07-20T06:15:23;17.13;;;10.00;;
5245;SDS011;54412;51.206;6.888;2023-07-20T06:18:08;14.07;;;8.40;;
5245;SDS011;54412;51.206;6.888;2023-07-20T06:20:34;14.40;;;9.60;;
5245;SDS011;54412;51.206;6.888;2023-07-20T06:23:00;8.67;;;7.77;;
5245;SDS011;54412;51.206;6.888;2023-07-20T06:25:25;13.63;;;9.30;;
5245;SDS011;54412;51.206;6.888;2023-07-20T06:27:51;12.53;;;8.40;;
5245;SDS011;54412;51.206;6.888;2023-07-20T06:30:17;8.63;;;6.90;;
5245;SDS011;54412;51.206;6.888;2023-07-20T06:32:43;8.67;;;7.87;;
5245;SDS011;54412;51.206;6.888;2023-07-20T06:35:09;12.53;;;8.30;;
5245;SDS011;54412;51.206;6.888;2023-07-20T06:37:35;15.40;;;9.93;;
5245;SDS011;54412;51.206;6.888;2023-07-20T06:40:02;11.13;;;8.93;;
5245;SDS011;54412;51.206;6.888;2023-07-20T06:42:31;11.60;;;8.37;;
5245;SDS011;54412;51.206;6.888;2023-07-20T06:44:57;8.97;;;7.83;;
5245;SDS011;54412;51.206;6.888;2023-07-20T06:47:23;8.10;;;7.13;;
5245;SDS011;54412;51.206;6.888;2023-07-20T06:49:49;9.47;;;5.20;;
5245;SDS011;54412;51.206;6.888;2023-07-20T06:52:14;10.47;;;8.60;;
5245;SDS011;54412;51.206;6.888;2023-07-20T06:54:40;8.97;;;8.07;;
5245;SDS011;54412;51.206;6.888;2023-07-20T06:57:06;14.13;;;12.70;;
5245;SDS011;54412;51.206;6.888;2023-07-20T06:59:31;15.50;;;13.83;;
5245;SDS011;54412;51.206;6.888;2023-07-20T07:01:57;14.63;;;12.13;;
5245;SDS011;54412;51.206;6.888;2023-07-20T07:04:23;13.70;;;12.00;;
5245;SDS011;54412;51.206;6.888;2023-07-20T07:06:48;13.37;;;11.30;;
5245;SDS011;54412;51.206;6.888;2023-07-20T07:09:14;14.30;;;11.17;;
5245;SDS011;54412;51.206;6.888;2023-07-20T07:11:40;14.70;;;10.93;;
5245;SDS011;54412;51.206;6.888;2023-07-20T07:14:05;13.70;;;11.77;;
5245;SDS011;54412;51.206;6.888;2023-07-20T07:16:31;14.47;;;9.90;;
5245;SDS011;54412;51.206;6.888;2023-07-20T07:18:57;11.83;;;10.63;;
5245;SDS011;54412;51.206;6.888;2023-07-20T07:21:23;10.53;;;9.63;;
5245;SDS011;54412;51.206;6.888;2023-07-20T07:23:50;10.23;;;9.23;;
5245;SDS011;54412;51.206;6.888;2023-07-20T07:26:18;13.83;;;10.00;;
5245;SDS011;54412;51.206;6.888;2023-07-20T07:28:44;15.80;;;10.00;;
5245;SDS011;54412;51.206;6.888;2023-07-20T07:31:10;15.80;;;9.63;;
5245;SDS011;54412;51.206;6.888;2023-07-20T07:33:35;9.33;;;8.43;;
5245;SDS011;54412;51.206;6.888;2023-07-20T07:36:01;10.37;;;7.07;;
5245;SDS011;54412;51.206;6.888;2023-07-20T07:38:27;12.63;;;6.53;;
5245;SDS011;54412;51.206;6.888;2023-07-20T07:40:52;7.73;;;6.40;;
5245;SDS011;54412;51.206;6.888;2023-07-20T07:43:19;7.40;;;6.07;;
5245;SDS011;54412;51.206;6.888;2023-07-20T07:45:44;4.93;;;4.53;;
5245;SDS011;54412;51.206;6.888;2023-07-20T07:48:10;5.23;;;4.40;;
5245;SDS011;54412;51.206;6.888;2023-07-20T07:50:37;5.43;;;3.63;;
5245;SDS011;54412;51.206;6.888;2023-07-20T07:53:05;3.40;;;3.10;;
5245;SDS011;54412;51.206;6.888;2023-07-20T07:55:32;3.30;;;3.00;;
5245;SDS011;54412;51.206;6.888;2023-07-20T07:57:58;3.00;;;2.63;;
5245;SDS011;54412;51.206;6.888;2023-07-20T08:00:23;3.17;;;2.77;;
5245;SDS011;54412;51.206;6.888;2023-07-20T08:02:49;4.80;;;3.37;;
5245;SDS011;54412;51.206;6.888;2023-07-20T08:05:16;4.60;;;3.60;;
5245;SDS011;54412;51.206;6.888;2023-07-20T08:07:41;4.40;;;2.53;;
5245;SDS011;54412;51.206;6.888;2023-07-20T08:10:08;3.70;;;3.40;;
5245;SDS011;54412;51.206;6.888;2023-07-20T08:12:34;3.23;;;3.03;;
5245;SDS011;54412;51.206;6.888;2023-07-20T08:15:00;32.20;;;6.97;;
5245;SDS011;54412;51.206;6.888;2023-07-20T08:17:26;6.13;;;2.70;;
5245;SDS011;54412;51.206;6.888;2023-07-20T08:19:52;1.77;;;1.63;;
5245;SDS011;54412;51.206;6.888;2023-07-20T08:22:17;3.00;;;1.50;;
5245;SDS011;54412;51.206;6.888;2023-07-20T08:24:43;3.73;;;1.77;;
5245;SDS011;54412;51.206;6.888;2023-07-20T08:27:09;1.90;;;1.20;;
5245;SDS011;54412;51.206;6.888;2023-07-20T08:29:35;3.07;;;1.43;;
5245;SDS011;54412;51.206;6.888;2023-07-20T08:32:02;3.03;;;1.43;;
5245;SDS011;54412;51.206;6.888;2023-07-20T08:34:29;3.37;;;1.70;;
5245;SDS011;54412;51.206;6.888;2023-07-20T08:36:55;2.77;;;1.80;;
5245;SDS011;54412;51.206;6.888;2023-07-20T08:39:22;1.67;;;1.57;;
5245;SDS011;54412;51.206;6.888;2023-07-20T08:41:49;17.30;;;1.30;;
5245;SDS011;54412;51.206;6.888;2023-07-20T08:44:16;2.00;;;1.20;;
5245;SDS011;54412;51.206;6.888;2023-07-20T08:46:42;2.20;;;1.67;;
5245;SDS011;54412;51.206;6.888;2023-07-20T08:49:09;3.53;;;2.00;;
5245;SDS011;54412;51.206;6.888;2023-07-20T08:51:36;3.13;;;1.70;;
5245;SDS011;54412;51.206;6.888;2023-07-20T08:54:04;3.57;;;2.97;;
5245;SDS011;54412;51.206;6.888;2023-07-20T08:56:31;2.23;;;2.13;;
5245;SDS011;54412;51.206;6.888;2023-07-20T08:58:58;1.90;;;1.80;;
5245;SDS011;54412;51.206;6.888;2023-07-20T09:01:26;1.57;;;1.37;;
5245;SDS011;54412;51.206;6.888;2023-07-20T09:03:54;2.30;;;1.90;;
5245;SDS011;54412;51.206;6.888;2023-07-20T09:06:21;1.80;;;1.60;;
5245;SDS011;54412;51.206;6.888;2023-07-20T09:08:47;1.90;;;1.80;;
5245;SDS011;54412;51.206;6.888;2023-07-20T09:11:14;2.17;;;2.00;;
5245;SDS011;54412;51.206;6.888;2023-07-20T09:13:40;5.17;;;2.20;;
5245;SDS011;54412;51.206;6.888;2023-07-20T09:16:05;4.33;;;2.97;;
5245;SDS011;54412;51.206;6.888;2023-07-20T09:18:31;2.93;;;2.63;;
5245;SDS011;54412;51.206;6.888;2023-07-20T09:21:02;5.30;;;4.90;;
5245;SDS011;54412;51.206;6.888;2023-07-20T09:23:34;3.23;;;2.90;;
5245;SDS011;54412;51.206;6.888;2023-07-20T09:26:09;3.67;;;3.33;;
5245;SDS011;54412;51.206;6.888;2023-07-20T09:28:43;2.90;;;2.70;;
5245;SDS011;54412;51.206;6.888;2023-07-20T09:31:18;3.20;;;2.77;;
5245;SDS011;54412;51.206;6.888;2023-07-20T09:33:46;2.83;;;2.00;;
5245;SDS011;54412;51.206;6.888;2023-07-20T09:36:13;5.60;;;2.27;;
5245;SDS011;54412;51.206;6.888;2023-07-20T09:38:41;3.13;;;2.03;;
5245;SDS011;54412;51.206;6.888;2023-07-20T09:41:08;2.97;;;1.80;;
5245;SDS011;54412;51.206;6.888;2023-07-20T09:43:38;10.73;;;2.23;;
5245;SDS011;54412;51.206;6.888;2023-07-20T09:46:04;4.60;;;2.07;;
5245;SDS011;54412;51.206;6.888;2023-07-20T09:48:30;3.40;;;2.33;;
5245;SDS011;54412;51.206;6.888;2023-07-20T09:50:56;3.10;;;2.40;;
5245;SDS011;54412;51.206;6.888;2023-07-20T09:53:22;3.00;;;1.63;;
5245;SDS011;54412;51.206;6.888;2023-07-20T09:55:51;1.93;;;1.70;;
5245;SDS011;54412;51.206;6.888;2023-07-20T09:58:19;2.93;;;1.90;;
5245;SDS011;54412;51.206;6.888;2023-07-20T10:00:45;2.90;;;1.47;;
5245;SDS011;54412;51.206;6.888;2023-07-20T10:03:18;1.83;;;1.73;;
5245;SDS011;54412;51.206;6.888;2023-07-20T10:05:52;3.17;;;2.20;;
5245;SDS011;54412;51.206;6.888;2023-07-20T10:08:24;2.47;;;2.27;;
5245;SDS011;54412;51.206;6.888;2023-07-20T10:10:50;2.93;;;2.30;;
5245;SDS011;54412;51.206;6.888;2023-07-20T10:13:17;5.70;;;2.17;;
5245;SDS011;54412;51.206;6.888;2023-07-20T10:15:50;2.20;;;1.73;;
5245;SDS011;54412;51.206;6.888;2023-07-20T10:20:59;2.27;;;2.10;;
5245;SDS011;54412;51.206;6.888;2023-07-20T10:23:27;1.47;;;1.37;;
5245;SDS011;54412;51.206;6.888;2023-07-20T10:25:55;1.80;;;1.47;;
5245;SDS011;54412;51.206;6.888;2023-07-20T10:28:22;4.63;;;0.90;;
5245;SDS011;54412;51.206;6.888;2023-07-20T10:30:49;0.70;;;0.70;;
5245;SDS011;54412;51.206;6.888;2023-07-20T10:33:16;1.27;;;0.90;;
5245;SDS011;54412;51.206;6.888;2023-07-20T10:35:50;1.30;;;0.70;;
5245;SDS011;54412;51.206;6.888;2023-07-20T10:46:48;1.80;;;1.20;;
5245;SDS011;54412;51.206;6.888;2023-07-20T10:49:14;2.77;;;2.50;;
5245;SDS011;54412;51.206;6.888;2023-07-20T10:51:42;1.23;;;1.10;;
5245;SDS011;54412;51.206;6.888;2023-07-20T10:56:42;3.60;;;0.80;;
5245;SDS011;54412;51.206;6.888;2023-07-20T10:59:19;2.87;;;0.80;;
5245;SDS011;54412;51.206;6.888;2023-07-20T11:02:06;1.47;;;1.27;;
5245;SDS011;54412;51.206;6.888;2023-07-20T11:07:09;1.40;;;1.30;;
5245;SDS011;54412;51.206;6.888;2023-07-20T11:09:35;1.27;;;1.20;;
5245;SDS011;54412;51.206;6.888;2023-07-20T11:12:13;1.30;;;0.90;;
5245;SDS011;54412;51.206;6.888;2023-07-20T11:14:41;3.10;;;1.17;;
5245;SDS011;54412;51.206;6.888;2023-07-20T11:17:18;2.37;;;1.10;;
5245;SDS011;54412;51.206;6.888;2023-07-20T11:19:47;7.23;;;1.60;;
5245;SDS011;54412;51.206;6.888;2023-07-20T11:22:16;1.97;;;1.30;;
5245;SDS011;54412;51.206;6.888;2023-07-20T11:24:43;0.63;;;0.63;;
5245;SDS011;54412;51.206;6.888;2023-07-20T11:27:08;1.57;;;1.07;;
5245;SDS011;54412;51.206;6.888;2023-07-20T11:29:34;3.67;;;1.40;;
5245;SDS011;54412;51.206;6.888;2023-07-20T11:32:02;1.50;;;1.30;;
5245;SDS011;54412;51.206;6.888;2023-07-20T11:34:30;1.20;;;1.10;;
5245;SDS011;54412;51.206;6.888;2023-07-20T11:36:58;3.27;;;1.67;;
5245;SDS011;54412;51.206;6.888;2023-07-20T11:39:24;0.80;;;0.80;;
5245;SDS011;54412;51.206;6.888;2023-07-20T11:41:54;3.23;;;1.00;;
5245;SDS011;54412;51.206;6.888;2023-07-20T11:44:22;2.00;;;0.83;;
5245;SDS011;54412;51.206;6.888;2023-07-20T11:49:41;3.33;;;1.00;;
5245;SDS011;54412;51.206;6.888;2023-07-20T11:52:08;1.23;;;1.00;;
5245;SDS011;54412;51.206;6.888;2023-07-20T11:54:39;0.80;;;0.80;;
5245;SDS011;54412;51.206;6.888;2023-07-20T11:57:06;0.90;;;0.77;;
5245;SDS011;54412;51.206;6.888;2023-07-20T11:59:32;1.90;;;1.20;;
5245;SDS011;54412;51.206;6.888;2023-07-20T12:02:01;1.50;;;1.40;;
5245;SDS011;54412;51.206;6.888;2023-07-20T12:04:28;0.80;;;0.80;;
5245;SDS011;54412;51.206;6.888;2023-07-20T12:06:56;1.17;;;0.60;;
5245;SDS011;54412;51.206;6.888;2023-07-20T12:09:22;0.70;;;0.70;;
5245;SDS011;54412;51.206;6.888;2023-07-20T12:11:48;0.90;;;0.90;;
5245;SDS011;54412;51.206;6.888;2023-07-20T12:14:15;1.67;;;1.00;;
5245;SDS011;54412;51.206;6.888;2023-07-20T12:16:42;1.00;;;0.73;;
5245;SDS011;54412;51.206;6.888;2023-07-20T12:19:09;0.70;;;0.70;;
5245;SDS011;54412;51.206;6.888;2023-07-20T12:21:38;0.80;;;0.50;;
5245;SDS011;54412;51.206;6.888;2023-07-20T12:24:07;0.93;;;0.70;;
5245;SDS011;54412;51.206;6.888;2023-07-20T12:26:35;1.00;;;0.60;;
5245;SDS011;54412;51.206;6.888;2023-07-20T12:29:01;0.93;;;0.60;;
5245;SDS011;54412;51.206;6.888;2023-07-20T12:31:28;2.60;;;0.80;;
5245;SDS011;54412;51.206;6.888;2023-07-20T12:33:56;6.13;;;1.27;;
5245;SDS011;54412;51.206;6.888;2023-07-20T12:36:23;1.60;;;1.17;;
5245;SDS011;54412;51.206;6.888;2023-07-20T12:38:49;0.50;;;0.50;;
5245;SDS011;54412;51.206;6.888;2023-07-20T12:41:15;0.90;;;0.70;;
5245;SDS011;54412;51.206;6.888;2023-07-20T12:43:41;0.70;;;0.70;;
5245;SDS011;54412;51.206;6.888;2023-07-20T12:46:09;0.80;;;0.80;;
5245;SDS011;54412;51.206;6.888;2023-07-20T12:48:37;0.70;;;0.60;;
5245;SDS011;54412;51.206;6.888;2023-07-20T12:51:05;0.70;;;0.70;;
5245;SDS011;54412;51.206;6.888;2023-07-20T12:53:31;0.40;;;0.40;;
5245;SDS011;54412;51.206;6.888;2023-07-20T12:55:57;1.03;;;0.70;;
5245;SDS011;54412;51.206;6.888;2023-07-20T12:58:24;0.87;;;0.60;;
5245;SDS011;54412;51.206;6.888;2023-07-20T13:00:50;1.67;;;0.53;;
5245;SDS011;54412;51.206;6.888;2023-07-20T13:03:17;0.80;;;0.73;;
5245;SDS011;54412;51.206;6.888;2023-07-20T13:05:44;0.70;;;0.70;;
5245;SDS011;54412;51.206;6.888;2023-07-20T13:08:11;0.93;;;0.80;;
5245;SDS011;54412;51.206;6.888;2023-07-20T13:10:37;1.37;;;1.20;;
5245;SDS011;54412;51.206;6.888;2023-07-20T13:13:03;0.70;;;0.70;;
5245;SDS011;54412;51.206;6.888;2023-07-20T13:15:30;0.70;;;0.70;;
5245;SDS011;54412;51.206;6.888;2023-07-20T13:17:58;0.67;;;0.67;;
5245;SDS011;54412;51.206;6.888;2023-07-20T13:20:24;4.40;;;1.37;;
5245;SDS011;54412;51.206;6.888;2023-07-20T13:22:52;2.53;;;0.70;;
5245;SDS011;54412;51.206;6.888;2023-07-20T13:25:17;0.60;;;0.60;;
5245;SDS011;54412;51.206;6.888;2023-07-20T13:27:46;1.43;;;0.83;;
5245;SDS011;54412;51.206;6.888;2023-07-20T13:30:12;0.80;;;0.70;;
5245;SDS011;54412;51.206;6.888;2023-07-20T13:32:41;45.00;;;3.70;;
5245;SDS011;54412;51.206;6.888;2023-07-20T13:35:10;1.00;;;0.83;;
5245;SDS011;54412;51.206;6.888;2023-07-20T13:37:37;1.30;;;0.70;;
5245;SDS011;54412;51.206;6.888;2023-07-20T13:40:03;2.30;;;0.97;;
5245;SDS011;54412;51.206;6.888;2023-07-20T13:42:30;0.87;;;0.87;;
5245;SDS011;54412;51.206;6.888;2023-07-20T13:44:57;1.63;;;1.10;;
5245;SDS011;54412;51.206;6.888;2023-07-20T13:47:23;2.37;;;1.10;;
5245;SDS011;54412;51.206;6.888;2023-07-20T13:49:49;6.20;;;1.57;;
5245;SDS011;54412;51.206;6.888;2023-07-20T13:52:14;5.03;;;1.30;;
5245;SDS011;54412;51.206;6.888;2023-07-20T13:54:40;1.03;;;1.00;;
5245;SDS011;54412;51.206;6.888;2023-07-20T13:57:06;1.77;;;1.20;;
5245;SDS011;54412;51.206;6.888;2023-07-20T13:59:32;1.60;;;1.50;;
5245;SDS011;54412;51.206;6.888;2023-07-20T14:01:57;2.97;;;1.03;;
5245;SDS011;54412;51.206;6.888;2023-07-20T14:04:23;3.57;;;1.17;;
5245;SDS011;54412;51.206;6.888;2023-07-20T14:06:49;2.00;;;0.87;;
5245;SDS011;54412;51.206;6.888;2023-07-20T14:09:16;1.43;;;0.83;;
5245;SDS011;54412;51.206;6.888;2023-07-20T14:11:42;4.73;;;0.80;;
5245;SDS011;54412;51.206;6.888;2023-07-20T14:14:07;1.73;;;1.00;;
5245;SDS011;54412;51.206;6.888;2023-07-20T14:16:33;0.93;;;0.90;;
5245;SDS011;54412;51.206;6.888;2023-07-20T14:18:59;0.80;;;0.80;;
5245;SDS011;54412;51.206;6.888;2023-07-20T14:21:24;2.23;;;1.10;;
5245;SDS011;54412;51.206;6.888;2023-07-20T14:23:51;2.73;;;1.13;;
5245;SDS011;54412;51.206;6.888;2023-07-20T14:26:20;1.03;;;0.80;;
5245;SDS011;54412;51.206;6.888;2023-07-20T14:28:46;8.63;;;0.93;;
5245;SDS011;54412;51.206;6.888;2023-07-20T14:31:12;0.87;;;0.80;;
5245;SDS011;54412;51.206;6.888;2023-07-20T14:33:38;1.13;;;0.90;;
5245;SDS011;54412;51.206;6.888;2023-07-20T14:36:04;1.07;;;1.07;;
5245;SDS011;54412;51.206;6.888;2023-07-20T14:38:30;0.80;;;0.80;;
5245;SDS011;54412;51.206;6.888;2023-07-20T14:40:58;0.83;;;0.70;;
5245;SDS011;54412;51.206;6.888;2023-07-20T14:43:24;1.73;;;0.90;;
5245;SDS011;54412;51.206;6.888;2023-07-20T14:45:49;1.00;;;0.90;;
5245;SDS011;54412;51.206;6.888;2023-07-20T14:48:15;3.43;;;1.10;;
5245;SDS011;54412;51.206;6.888;2023-07-20T14:50:41;3.60;;;0.70;;
5245;SDS011;54412;51.206;6.888;2023-07-20T14:53:07;1.30;;;0.77;;
5245;SDS011;54412;51.206;6.888;2023-07-20T14:55:33;3.27;;;0.70;;
5245;SDS011;54412;51.206;6.888;2023-07-20T14:57:59;3.23;;;0.70;;
5245;SDS011;54412;51.206;6.888;2023-07-20T15:00:24;4.10;;;3.73;;
5245;SDS011;54412;51.206;6.888;2023-07-20T15:02:51;2.20;;;0.80;;
5245;SDS011;54412;51.206;6.888;2023-07-20T15:05:21;1.03;;;0.90;;
5245;SDS011;54412;51.206;6.888;2023-07-20T15:07:48;2.00;;;0.67;;
5245;SDS011;54412;51.206;6.888;2023-07-20T15:10:14;0.77;;;0.70;;
5245;SDS011;54412;51.206;6.888;2023-07-20T15:12:41;1.07;;;0.97;;
5245;SDS011;54412;51.206;6.888;2023-07-20T15:15:08;1.30;;;0.97;;
5245;SDS011;54412;51.206;6.888;2023-07-20T15:17:35;2.07;;;0.60;;
5245;SDS011;54412;51.206;6.888;2023-07-20T15:20:04;0.80;;;0.70;;
5245;SDS011;54412;51.206;6.888;2023-07-20T15:22:32;0.60;;;0.60;;